Aérodrome :
LOGIN :

S'inscrire | Disclaimer

   EN    FR    IT 

 










Légende :    VFR   VFR Marginal   IFR   IFR Intensif   IFR Très Intensif
Visi : 
Plafond : 
>= 8 km
>= 3000ft
5 à 8 km
1000 à 3000 ft
1500m à 5 km
500 à 1000 ft
800 à 1500m
200 à 500 ft
< 800m
< 200 ft
Symboles :   Orages  Brouillard  Fortes neiges  Fortes précipitations  Vent > 20 kt
SIGMETs :   Divers  Orages  Givrage  Turbulence  Onde Orograph.  Cendres Volcan.







- Altitude de l'aérodrome : 821 ft
- Code IATA : LYS
- Voir les cartes d'approche


LFLL - Lyon St Exupéry / Satolas

DERNIER METAR :
  • 130400Z 18012KT CAVOK 17/11 Q1024 NOSIG

METARs EXPIRÉS :
  • 130330Z 21011KT CAVOK 17/11 Q1023 NOSIG
  • 130300Z 24009KT CAVOK 17/11 Q1024 NOSIG
  • 130230Z 22008KT 180V240 CAVOK 17/10 Q1023 NOSIG
  • 130200Z 21008KT 170V240 CAVOK 17/10 Q1023 NOSIG
  • 130130Z 17007KT 120V210 CAVOK 17/10 Q1022 NOSIG

TAF TAF LFLL
Valide du 13 à 00h jusqu'au 14 à 06h UTC


122300Z 1300/1406 18008KT CAVOK
PROB40
TEMPO 1300/1302 20015G25KT
BECMG 1303/1305 34006KT 9999 BKN030
TEMPO 1305/1312 RA
BECMG 1317/1319 CAVOK
BECMG 1322/1324 5000 NSC
BECMG 1400/1403 0400 FG VV///
Pas de NOTAMs connus pour ce terrain.



MET'MAP, la Météo Aéronautique d'un coup d'oeil ! - Copyright ORBIFLY Décembre 2007 - Disclaimer

ORBIFLY MET'MAP TEAM :

Programmation & Développement : Alexandra Zaïnal
Conception & Développement : Baudouin d'Aumeries
Co-Programmation & Développement : Marc-Olivier Méhu
Soutien technique & logistique : Manuel Goepfert

Contact : metmap@orbifly.com




SOURCES & CREDITS :

   NOAA